• Join FlightAware (Why Join?)
  • Login
  • US Flag 
01:24AM EDT


 

Airport Tracker/Info


-or-


 

Live Flight TrackerFlight Track Log ✈ FDX1404 ✈ 26-Jul-2013 ✈ KMEM - KLAX

Flight Track Log - Related Links

Times and Time Zones

All times are in EDT time to prevent confusion due to time zone crossing. See the FDX1404 flight status page for this flight to view local times or setup timezone preferences in your user account.

Time Position Orientation Groundspeed Altitude Reporting Facility
EDT Latitude Longitude Course Direction KTS MPH feet Rate Location/Type
03:34AM 35.0667 -90.0000 256° West 168 193 1,100  Level KMEM
03:36AM 35.0500 -90.0833 256° West 255 293 3,500 2,520 Climbing KMEM
03:37AM 35.0333 -90.1833 259° West 284 327 7,200 3,600 Climbing KMEM
03:37AM 35.0136 -90.2608 253° West 281 323 9,900 2,460 Climbing Memphis Center
03:38AM 34.9928 -90.3647 256° West 312 359 11,600 2,160 Climbing Memphis Center
03:39AM 34.9656 -90.4889 255° West 358 412 14,300 2,520 Climbing Memphis Center
03:40AM 34.9403 -90.6028 255° West 381 438 16,700 2,340 Climbing Memphis Center
03:41AM 34.9108 -90.7369 255° West 406 467 19,000 2,220 Climbing Memphis Center
03:42AM 34.8833 -90.8786 257° West 421 484 21,200 1,980 Climbing Memphis Center
03:43AM 34.8617 -91.0253 260° West 439 505 23,000 1,620 Climbing Memphis Center
03:44AM 34.8378 -91.1719 259° West 448 516 24,500 4,500 Climbing Memphis Center
03:45AM 34.8014 -91.3206 253° West 453 521 32,000 1,680 Climbing Memphis Center
03:46AM 34.7564 -91.4692 250° West 459 528 27,900 -1,140 Descending Memphis Center
03:47AM 34.7047 -91.6328 249° West 466 536 29,800 1,800 Climbing Memphis Center
03:48AM 34.6633 -91.7736 250° West 465 535 31,600 1,080 Climbing Memphis Center
03:49AM 34.6178 -91.9217 250° West 460 529 32,000 180 Climbing Memphis Center
03:50AM 34.5742 -92.0672 250° West 465 535 32,000  Level Memphis Center
03:51AM 34.5283 -92.2100 249° West 465 535 32,000  Level Memphis Center
03:52AM 34.4450 -92.3367 231° Southwest 465 535 32,000  Level Memphis Center
03:53AM 34.3681 -92.4608 233° Southwest 477 549 32,000  Level Memphis Center
03:59AM 34.1020 -93.2420 233° Southwest 463 533 32,000  Level FlightAware
04:00AM 34.0750 -93.3370 251° West 463 533 32,000  Level FlightAware
04:00AM 34.0380 -93.4640 251° West 464 534 32,000  Level FlightAware
04:01AM 34.0160 -93.5380 250° West 464 534 32,000  Level FlightAware
04:02AM 33.9860 -93.6370 250° West 464 534 32,000  Level FlightAware
04:02AM 33.9630 -93.7120 250° West 464 534 32,000  Level FlightAware
04:03AM 33.9330 -93.8110 250° West 464 534 32,000  Level FlightAware
04:04AM 33.9110 -93.8850 250° West 464 534 32,000  Level FlightAware
04:05AM 33.8580 -94.0770 252° West 463 533 32,000  Level FlightAware
04:05AM 33.8240 -94.1900 250° West 461 531 32,000  Level FlightAware
04:06AM 33.7960 -94.2870 251° West 457 526 32,000  Level FlightAware
04:07AM 33.7650 -94.3890 250° West 453 521 32,000  Level FlightAware
04:07AM 33.7390 -94.4790 251° West 454 522 32,000  Level FlightAware
04:08AM 33.7110 -94.5690 250° West 456 525 32,000  Level FlightAware
04:09AM 33.6740 -94.6910 250° West 456 525 32,000  Level FlightAware
04:10AM 33.6311 -94.8318 250° West 446 513 32,000  Level FlightAware ADS-B
04:10AM 33.6050 -94.9200 250° West 445 512 32,000  Level FlightAware
04:11AM 33.5760 -95.0150 250° West 450 518 32,000  Level FlightAware
04:12AM 33.5440 -95.1190 250° West 451 519 32,000  Level FlightAware
04:12AM 33.5150 -95.2130 250° West 450 518 32,000  Level FlightAware
04:13AM 33.4830 -95.3160 250° West 452 520 32,000  Level FlightAware
04:14AM 33.4540 -95.4100 250° West 452 520 32,000  Level FlightAware
04:15AM 33.4250 -95.5040 250° West 456 525 32,000  Level FlightAware
04:15AM 33.3940 -95.6020 249° West 458 527 32,000  Level FlightAware
04:16AM 33.3620 -95.7030 249° West 458 527 32,000  Level FlightAware
04:17AM 33.3320 -95.7990 250° West 461 531 32,000  Level FlightAware
04:17AM 33.3050 -95.8880 250° West 467 537 32,000  Level FlightAware
04:18AM 33.2700 -95.9970 249° West 467 537 32,000  Level FlightAware
04:19AM 33.2410 -96.0880 249° West 468 539 32,000  Level FlightAware
04:19AM 33.2070 -96.1940 249° West 464 534 32,000  Level FlightAware
04:20AM 33.1911 -96.2444 249° West 462 532 32,000  Level FlightAware ADS-B
04:20AM 33.1654 -96.3249 249° West 461 531 32,000  Level FlightAware ADS-B
04:21AM 33.1358 -96.4192 249° West 461 531 32,000  Level FlightAware ADS-B
04:22AM 33.0860 -96.5740 249° West 455 524 32,000  Level FlightAware
04:22AM 33.0788 -96.5951 248° West 456 525 32,000  Level FlightAware ADS-B
04:23AM 33.0559 -96.6678 249° West 456 525 32,000  Level FlightAware ADS-B
04:23AM 33.0325 -96.7379 248° West 456 525 32,000  Level FlightAware ADS-B
04:24AM 32.9947 -96.8557 249° West 457 526 32,000  Level FlightAware ADS-B
04:25AM 32.9622 -96.9552 249° West 461 531 32,000  Level FlightAware ADS-B
04:25AM 32.9368 -97.0337 249° West 464 534 32,000  Level FlightAware ADS-B
04:26AM 32.9000 -97.1500 249° West 462 532 32,000  Level FlightAware
04:27AM 32.8770 -97.2600 256° West 456 525 32,000  Level FlightAware
04:28AM 32.8630 -97.3590 260° West 455 524 32,000  Level FlightAware
04:28AM 32.8490 -97.4650 261° West 454 522 32,000  Level FlightAware
04:29AM 32.8360 -97.5540 260° West 452 520 32,000 360 Level FlightAware
04:30AM 32.8210 -97.6540 260° West 454 522 32,500 900 Climbing FlightAware
04:30AM 32.8070 -97.7550 261° West 455 524 33,300 1,080 Climbing FlightAware
04:31AM 32.7930 -97.8510 260° West 454 522 34,000 540 Climbing FlightAware
04:31AM 32.7790 -97.9430 260° West 459 528 34,000  Level FlightAware
04:32AM 32.7630 -98.0520 260° West 460 529 34,000  Level FlightAware
04:33AM 32.7490 -98.1520 261° West 459 528 34,000  Level FlightAware
04:34AM 32.7330 -98.2580 260° West 459 528 34,000  Level FlightAware
04:34AM 32.7180 -98.3580 260° West 457 526 34,000  Level FlightAware
04:35AM 32.7020 -98.4640 260° West 460 529 34,000  Level FlightAware
04:36AM 32.6930 -98.5650 264° West 458 527 34,000  Level FlightAware
04:36AM 32.6860 -98.6740 266° West 456 525 34,000  Level FlightAware
04:37AM 32.6790 -98.7740 265° West 456 525 34,000  Level FlightAware
04:38AM 32.6720 -98.8890 266° West 457 526 34,000  Level FlightAware
04:38AM 32.6650 -98.9870 265° West 458 527 34,000  Level FlightAware
04:39AM 32.6580 -99.0970 266° West 459 528 34,000  Level FlightAware
04:40AM 32.6510 -99.1920 265° West 462 532 34,000  Level FlightAware
04:41AM 32.6430 -99.3090 265° West 463 533 34,000  Level FlightAware
04:41AM 32.6350 -99.4120 265° West 462 532 34,000  Level FlightAware
04:42AM 32.6270 -99.5260 265° West 461 531 34,000  Level FlightAware
04:43AM 32.6200 -99.6320 266° West 463 533 34,000  Level FlightAware
04:43AM 32.6140 -99.7100 265° West 464 534 34,000  Level FlightAware
04:44AM 32.6050 -99.8250 265° West 467 537 34,000  Level FlightAware
04:45AM 32.5970 -99.9270 265° West 467 537 34,000  Level FlightAware
04:45AM 32.5900 -100.0160 265° West 466 536 34,000  Level FlightAware
04:46AM 32.5790 -100.1670 265° West 467 537 34,000  Level FlightAware
04:47AM 32.5720 -100.2540 265° West 467 537 34,000  Level FlightAware
04:47AM 32.5650 -100.3430 265° West 467 537 34,000  Level FlightAware
04:48AM 32.5550 -100.4700 265° West 468 539 34,000  Level FlightAware
04:49AM 32.5440 -100.6060 265° West 468 539 34,000  Level FlightAware
04:50AM 32.5360 -100.7000 264° West 468 539 34,000  Level FlightAware
04:51AM 32.5240 -100.8530 265° West 466 536 34,000  Level FlightAware
04:51AM 32.5150 -100.9540 264° West 466 536 34,000  Level FlightAware
04:52AM 32.5040 -101.0840 264° West 466 536 34,000  Level FlightAware
04:53AM 32.4950 -101.1950 265° West 467 537 34,000  Level FlightAware
04:54AM 32.4850 -101.3070 264° West 466 536 34,000  Level FlightAware
04:54AM 32.4770 -101.3980 264° West 466 536 34,000  Level FlightAware
04:55AM 32.4680 -101.5000 264° West 464 534 34,000  Level FlightAware
04:56AM 32.4590 -101.5980 264° West 465 535 34,000  Level FlightAware
04:56AM 32.4470 -101.7220 263° West 466 536 34,000  Level FlightAware
04:57AM 32.4360 -101.8260 263° West 466 536 34,000  Level FlightAware
04:58AM 32.4280 -101.9030 263° West 466 536 34,000  Level FlightAware
04:59AM 32.4180 -102.0070 264° West 466 536 34,000  Level FlightAware
04:59AM 32.4100 -102.0840 263° West 466 536 34,000  Level FlightAware
05:00AM 32.3990 -102.1880 263° West 466 536 34,000  Level FlightAware
05:01AM 32.3910 -102.2650 263° West 466 536 34,000  Level FlightAware
05:02AM 32.3800 -102.3710 263° West 466 536 34,000  Level FlightAware
05:02AM 32.3720 -102.4480 263° West 466 536 34,000  Level FlightAware
05:03AM 32.3610 -102.5520 263° West 466 536 34,000  Level FlightAware
05:04AM 32.3530 -102.6290 263° West 466 536 34,000  Level FlightAware
05:04AM 32.3420 -102.7350 263° West 466 536 34,000  Level FlightAware
05:05AM 32.3340 -102.8140 263° West 466 536 34,000  Level FlightAware
05:06AM 32.3230 -102.9200 263° West 466 536 34,000  Level FlightAware
05:07AM 32.3003 -103.2308 263° West 465 535 34,000  Level Albuquerque Center
05:08AM 32.2856 -103.3822 263° West 465 535 34,000  Level Albuquerque Center
05:09AM 32.2689 -103.5342 263° West 466 536 34,000  Level Albuquerque Center
05:10AM 32.2528 -103.6858 263° West 467 537 34,000  Level Albuquerque Center
05:11AM 32.2383 -103.8389 264° West 469 540 34,000  Level Albuquerque Center
05:12AM 32.2228 -103.9914 263° West 469 540 34,000  Level Albuquerque Center
05:13AM 32.2083 -104.1283 263° West 467 537 34,000 -60 Level Albuquerque Center
05:14AM 32.1906 -104.2792 262° West 466 536 33,900  Descending Albuquerque Center
05:15AM 32.1731 -104.4300 262° West 467 537 34,000  Climbing Albuquerque Center
05:16AM 32.1914 -104.6097 277° West 471 542 34,000  Level Albuquerque Center
05:17AM 32.2183 -104.7542 282° West 457 526 34,000  Level Albuquerque Center
05:18AM 32.2467 -104.9047 283° West 462 532 34,000  Level Albuquerque Center
05:19AM 32.2739 -105.0547 282° West 466 536 34,000  Level Albuquerque Center
05:20AM 32.3022 -105.2017 283° West 466 536 34,000 -60 Level Albuquerque Center
05:21AM 32.3286 -105.3489 282° West 463 533 33,900  Descending Albuquerque Center
05:22AM 32.3553 -105.4961 282° West 462 532 34,000  Climbing Albuquerque Center
05:27AM 32.4950 -106.2810 282° West 465 535 34,000  Level FlightAware
05:28AM 32.5150 -106.3910 282° West 464 534 34,000  Level FlightAware
05:28AM 32.5310 -106.4850 281° West 465 535 34,000  Level FlightAware
05:29AM 32.5500 -106.5950 282° West 466 536 34,000  Level FlightAware
05:30AM 32.5660 -106.6900 281° West 467 537 34,000  Level FlightAware
05:30AM 32.5800 -106.7730 281° West 468 539 34,000  Level FlightAware
05:31AM 32.5930 -106.8500 281° West 468 539 34,000  Level FlightAware
05:31AM 32.6060 -106.9340 280° West 468 539 34,000  Level FlightAware
05:32AM 32.6230 -107.0370 281° West 468 539 34,000  Level FlightAware
05:33AM 32.6360 -107.1140 281° West 468 539 34,000  Level FlightAware
05:34AM 32.6530 -107.2170 281° West 468 539 34,000  Level FlightAware
05:34AM 32.6650 -107.2940 281° West 468 539 34,000  Level FlightAware
05:35AM 32.6820 -107.3980 281° West 468 539 34,000  Level FlightAware
05:36AM 32.6950 -107.4750 281° West 468 539 34,000  Level FlightAware
05:36AM 32.7070 -107.5520 281° West 468 539 34,000  Level FlightAware
05:37AM 32.7240 -107.6550 281° West 468 539 34,000  Level FlightAware
05:38AM 32.7370 -107.7350 281° West 468 539 34,000  Level FlightAware
05:38AM 32.7500 -107.8120 281° West 468 539 34,000  Level FlightAware
05:39AM 32.7620 -107.8890 281° West 468 539 34,000  Level FlightAware
05:39AM 32.7750 -107.9670 281° West 468 539 34,000  Level FlightAware
05:42AM 32.8840 -108.4800 284° West 462 532 34,000  Level FlightAware
05:42AM 32.9040 -108.5790 284° West 462 532 34,000  Level FlightAware
05:43AM 32.9190 -108.6590 283° West 462 532 34,000  Level FlightAware
05:43AM 32.9330 -108.7310 283° West 462 532 34,000  Level FlightAware
05:44AM 32.9530 -108.8340 283° West 462 532 34,000  Level FlightAware
05:45AM 32.9690 -108.9140 283° West 462 532 34,000  Level FlightAware
05:46AM 32.9890 -109.0160 283° West 462 532 34,000  Level FlightAware
05:46AM 33.0030 -109.0920 282° West 462 532 34,000  Level FlightAware
05:47AM 33.0470 -109.3080 284° West 469 540 34,000  Level FlightAware
05:48AM 33.0670 -109.4110 283° West 469 540 34,000  Level FlightAware
05:48AM 33.0830 -109.4970 283° West 469 540 34,000  Level FlightAware
05:49AM 33.1030 -109.6000 283° West 469 540 34,000  Level FlightAware
05:50AM 33.1240 -109.7120 283° West 470 541 34,000  Level FlightAware
05:50AM 33.1400 -109.7950 283° West 470 541 34,000  Level FlightAware
05:51AM 33.1620 -109.9120 283° West 471 542 34,000  Level FlightAware
05:52AM 33.1800 -110.0080 283° West 471 542 34,000  Level FlightAware
05:52AM 33.1980 -110.1040 283° West 469 540 34,000  Level FlightAware
05:53AM 33.2140 -110.1900 283° West 472 543 34,000  Level FlightAware
05:54AM 33.2330 -110.2950 282° West 472 543 34,000  Level FlightAware
05:54AM 33.2540 -110.4070 283° West 470 541 34,000  Level FlightAware
05:55AM 33.2730 -110.5110 282° West 469 540 34,000  Level FlightAware
05:56AM 33.2920 -110.6120 283° West 469 540 34,000  Level FlightAware
05:56AM 33.3120 -110.7260 282° West 470 541 34,000  Level FlightAware
05:57AM 33.3300 -110.8270 282° West 471 542 34,000  Level FlightAware
05:58AM 33.3500 -110.9390 282° West 470 541 34,000  Level FlightAware
05:58AM 33.3680 -111.0410 282° West 470 541 34,000  Level FlightAware
05:59AM 33.3880 -111.1510 282° West 470 541 34,000  Level FlightAware
06:00AM 33.4060 -111.2550 282° West 471 542 34,000  Level FlightAware
06:01AM 33.4260 -111.3640 282° West 470 541 34,000  Level FlightAware
06:01AM 33.4440 -111.4690 282° West 471 542 34,000  Level FlightAware
06:02AM 33.4590 -111.5560 282° West 473 544 34,000  Level FlightAware
06:03AM 33.4780 -111.6670 282° West 474 545 34,000  Level FlightAware
06:03AM 33.4950 -111.7670 282° West 475 547 34,000  Level FlightAware
06:04AM 33.5130 -111.8700 282° West 474 545 34,000  Level FlightAware
06:05AM 33.5310 -111.9760 282° West 473 544 34,000  Level FlightAware
06:05AM 33.5480 -112.0760 282° West 474 545 34,000  Level FlightAware
06:06AM 33.5660 -112.1810 282° West 473 544 34,000  Level FlightAware
06:07AM 33.5850 -112.2940 281° West 472 543 34,000  Level FlightAware
06:07AM 33.6020 -112.4040 281° West 472 543 34,000  Level FlightAware
06:08AM 33.6120 -112.5110 276° West 471 542 34,000  Level FlightAware
06:09AM 33.6210 -112.6130 276° West 472 543 34,000  Level FlightAware
06:09AM 33.6300 -112.7120 276° West 474 545 34,000  Level FlightAware
06:10AM 33.6410 -112.8320 276° West 475 547 34,000  Level FlightAware
06:11AM 33.6510 -112.9370 277° West 477 549 34,000  Level FlightAware
06:11AM 33.6590 -113.0270 276° West 479 551 34,000  Level FlightAware
06:12AM 33.6690 -113.1400 276° West 477 549 34,000  Level FlightAware
06:13AM 33.6780 -113.2480 276° West 473 544 34,000  Level FlightAware
06:13AM 33.6870 -113.3520 276° West 469 540 34,000  Level FlightAware
06:14AM 33.6980 -113.4710 276° West 468 539 34,000  Level FlightAware
06:15AM 33.7060 -113.5740 275° West 468 539 34,000  Level FlightAware
06:15AM 33.7160 -113.6870 276° West 465 535 34,000  Level FlightAware
06:16AM 33.7240 -113.7850 276° West 464 534 34,000  Level FlightAware
06:17AM 33.7340 -113.9030 276° West 465 535 34,000  Level FlightAware
06:18AM 33.7400 -113.9800 275° West 466 536 34,000  Level FlightAware
06:18AM 33.7490 -114.0930 276° West 465 535 34,000  Level FlightAware
06:19AM 33.7570 -114.1860 276° West 465 535 34,000  Level FlightAware
06:20AM 33.7660 -114.3010 275° West 465 535 34,000  Level FlightAware
06:20AM 33.7710 -114.3630 276° West 465 535 34,000  Level FlightAware
06:21AM 33.7800 -114.4870 275° West 464 534 34,000  Level FlightAware
06:22AM 33.7870 -114.5810 275° West 464 534 34,000  Level FlightAware
06:23AM 33.7940 -114.6860 275° West 464 534 34,000  Level FlightAware
06:23AM 33.8000 -114.7650 275° West 464 534 34,000  Level FlightAware
06:24AM 33.8080 -114.8720 275° West 464 534 34,000  Level FlightAware
06:25AM 33.8130 -114.9510 274° West 464 534 34,000  Level FlightAware
06:26AM 33.8350 -115.2260 276° West 464 534 34,000  Level FlightAware
06:26AM 33.8420 -115.3320 275° West 464 534 34,000  Level FlightAware
06:27AM 33.8490 -115.4350 275° West 466 536 34,000  Level FlightAware
06:28AM 33.8570 -115.5470 275° West 472 543 34,000  Level FlightAware
06:28AM 33.8640 -115.6510 275° West 468 539 34,000  Level FlightAware
06:29AM 33.8710 -115.7440 275° West 463 533 34,000  Level FlightAware
06:30AM 33.8800 -115.8850 274° West 464 534 34,000  Level FlightAware
06:30AM 33.8860 -115.9850 274° West 463 533 34,000  Level FlightAware
06:31AM 33.8940 -116.0980 275° West 464 534 34,000 -180 Level FlightAware
06:32AM 33.9010 -116.2090 274° West 462 532 33,800 -1,380 Descending FlightAware
06:33AM 33.9060 -116.3080 274° West 458 527 32,200 -2,700 Descending FlightAware
06:33AM 33.9110 -116.3820 275° West 461 531 30,600 -3,420 Descending FlightAware
06:34AM 33.9180 -116.4930 274° West 470 541 28,300 -3,360 Descending FlightAware
06:34AM 33.9250 -116.6060 274° West 492 566 26,000 -3,180 Descending FlightAware
06:35AM 33.9330 -116.7480 274° West 488 562 23,600 -3,000 Descending FlightAware
06:36AM 33.9380 -116.8410 274° West 465 535 22,000 -2,820 Descending FlightAware
06:37AM 33.9440 -116.9460 274° West 462 532 20,100 -2,820 Descending FlightAware
06:37AM 33.9510 -117.0470 275° West 444 511 18,200 -2,100 Descending FlightAware
06:38AM 33.9490 -117.1680 269° West 385 443 16,900 -840 Descending FlightAware
06:39AM 33.9420 -117.2580 265° West 361 415 16,900 -360 Level FlightAware
06:40AM 33.9430 -117.3690 271° West 369 425 16,300 -1,140 Descending FlightAware
06:40AM 33.9610 -117.4570 284° West 367 422 15,000 -1,800 Descending FlightAware
06:41AM 33.9820 -117.5560 284° West 363 418 13,600 -1,680 Descending FlightAware
06:42AM 33.9920 -117.6110 282° West 357 411 12,900 -1,440 Descending FlightAware
06:42AM 34.0080 -117.6910 284° West 347 399 11,900 -1,260 Descending FlightAware
06:43AM 34.0030 -117.7550 265° West 329 379 11,300 -1,380 Descending FlightAware
06:44AM 33.9910 -117.8280 259° West 301 346 10,200 -1,800 Descending FlightAware
06:44AM 33.9850 -117.8760 261° West 292 336 9,200 -1,620 Descending FlightAware
06:45AM 33.9810 -117.9190 264° West 264 304 8,700 -1,020 Descending FlightAware
06:45AM 33.9790 -117.9460 265° West 249 287 8,400 -1,140 Descending FlightAware
06:45AM 33.9780 -117.9820 268° West 219 252 7,800 -1,380 Descending FlightAware
06:46AM 33.9770 -118.0020 267° West 208 239 7,400 -1,920 Descending FlightAware
06:46AM 33.9730 -118.0330 261° West 190 219 6,400 -1,800 Descending FlightAware
06:47AM 33.9690 -118.0630 261° West 166 191 5,700 -1,380 Descending FlightAware
06:47AM 33.9670 -118.0840 263° West 152 175 5,200 -1,500 Descending FlightAware
06:48AM 33.9650 -118.1090 264° West 144 166 4,400 -1,080 Descending FlightAware
06:48AM 33.9630 -118.1300 263° West 145 167 4,200 -720 Descending FlightAware
06:48AM 33.9620 -118.1450 265° West 152 175 3,900 -960 Descending FlightAware
06:49AM 33.9590 -118.1690 261° West 155 178 3,500 -900 Descending FlightAware
06:49AM 33.9560 -118.1920 261° West 149 171 3,100 -840 Descending FlightAware
06:50AM 33.9550 -118.2100 266° West 150 173 2,800 -780 Descending FlightAware
06:50AM 33.9530 -118.2330 264° West 146 168 2,500 -840 Descending FlightAware
06:50AM 33.9520 -118.2420 262° West 146 168 2,300 -840 Descending FlightAware
06:51AM 33.9490 -118.2730 263° West 143 165 1,800 -780 Descending FlightAware
06:51AM 33.9460 -118.2980 262° West 142 163 1,400 -660 Descending FlightAware
06:52AM 33.9440 -118.3220 264° West 137 158 1,100 -360 Descending FlightAware
06:53AM 33.9410 -118.3450 261° West 136 157 1,000 420 Descending FlightAware
06:53AM 33.9470 -118.2870 83° East 143 165 1,600 300 Climbing FlightAware
06:54AM 33.9450 -118.3050 262° West 142 163 1,300 -420 Descending FlightAware
06:54AM 33.9430 -118.3280 264° West 141 162 1,200 -600 Descending FlightAware
06:55AM 33.9400 -118.3530 262° West 131 151 600 -840 Descending FlightAware
06:55AM 33.9400 -118.3600 270° West 132 152 400 -480 Descending FlightAware
06:56AM 33.9380 -118.3730 259° West 130 150 200 -420 Descending FlightAware
06:56AM 33.9380 -118.3790 270° West 130 150 100 -180 Descending FlightAware
06:56AM 33.9360 -118.3950 261° West 130 150 100  Level FlightAware
07:02AM 33.9425 -118.4081 104° East  Level Estimated
07:03AM 33.9425 -118.4081 104° East  Level Estimated